Time,TemperatureF,DewpointF,PressureIn,WindDirection,WindDirectionDegrees,WindSpeedMPH,WindSpeedGustMPH,Humidity,HourlyPrecipIn,Conditions,Clouds,dailyrainin,SoftwareType,DateUTC
2013-04-30 00:08:00,64.9,22.0,29.34,South,172,0.0,2.0,19,0.00,,,0.00,weatherlink.com 1.10,2013-04-30 06:08:00,
2013-04-30 00:23:00,63.7,22.0,29.34,SSE,162,0.0,1.0,20,0.00,,,0.00,weatherlink.com 1.10,2013-04-30 06:23:00,
2013-04-30 00:38:00,63.3,23.0,29.34,SSE,157,0.0,5.0,21,0.00,,,0.00,weatherlink.com 1.10,2013-04-30 06:38:00,
2013-04-30 00:53:00,62.5,23.0,29.34,SW,223,1.0,2.0,22,0.00,,,0.00,weatherlink.com 1.10,2013-04-30 06:53:00,
2013-04-30 01:08:00,61.6,24.0,29.35,NNW,345,1.0,3.0,24,0.00,,,0.00,weatherlink.com 1.10,2013-04-30 07:08:00,
2013-04-30 01:23:00,60.4,24.0,29.35,East,91,0.0,1.0,25,0.00,,,0.00,weatherlink.com 1.10,2013-04-30 07:23:00,
2013-04-30 01:38:00,59.5,25.0,29.35,South,174,0.0,1.0,27,0.00,,,0.00,weatherlink.com 1.10,2013-04-30 07:38:00,
2013-04-30 01:53:00,58.1,25.0,29.35,SE,137,0.0,1.0,28,0.00,,,0.00,weatherlink.com 1.10,2013-04-30 07:53:00,
2013-04-30 02:08:00,58.0,25.0,29.34,ESE,103,0.0,1.0,28,0.00,,,0.00,weatherlink.com 1.10,2013-04-30 08:08:00,
2013-04-30 02:23:00,57.1,26.0,29.34,SSE,166,0.0,1.0,30,0.00,,,0.00,weatherlink.com 1.10,2013-04-30 08:23:00,
2013-04-30 02:38:00,56.5,26.0,29.33,SE,139,0.0,1.0,31,0.00,,,0.00,weatherlink.com 1.10,2013-04-30 08:38:00,
2013-04-30 02:53:00,56.2,27.0,29.34,SSW,203,0.0,2.0,32,0.00,,,0.00,weatherlink.com 1.10,2013-04-30 08:53:00,
2013-04-30 03:08:00,55.3,26.0,29.34,SSE,148,0.0,1.0,33,0.00,,,0.00,weatherlink.com 1.10,2013-04-30 09:08:00,
2013-04-30 03:23:00,54.5,26.0,29.34,SSE,148,0.0,1.0,34,0.00,,,0.00,weatherlink.com 1.10,2013-04-30 09:23:00,
2013-04-30 03:38:00,53.6,26.0,29.34,SSE,150,0.0,1.0,34,0.00,,,0.00,weatherlink.com 1.10,2013-04-30 09:38:00,
2013-04-30 03:54:00,53.2,26.0,29.34,SSE,150,0.0,0.0,35,0.00,,,0.00,weatherlink.com 1.10,2013-04-30 09:54:00,
2013-04-30 04:09:00,52.4,27.0,29.35,NW,314,0.0,1.0,37,0.00,,,0.00,weatherlink.com 1.10,2013-04-30 10:09:00,
2013-04-30 04:24:00,51.6,26.0,29.36,NW,313,0.0,0.0,37,0.00,,,0.00,weatherlink.com 1.10,2013-04-30 10:24:00,
2013-04-30 04:39:00,51.3,26.0,29.36,NW,313,0.0,0.0,38,0.00,,,0.00,weatherlink.com 1.10,2013-04-30 10:39:00,
2013-04-30 04:54:00,52.1,26.0,29.37,East,81,0.0,1.0,36,0.00,,,0.00,weatherlink.com 1.10,2013-04-30 10:54:00,
2013-04-30 05:09:00,52.4,27.0,29.37,East,80,1.0,3.0,37,0.00,,,0.00,weatherlink.com 1.10,2013-04-30 11:09:00,
2013-04-30 05:24:00,53.1,27.0,29.38,East,90,2.0,3.0,37,0.00,,,0.00,weatherlink.com 1.10,2013-04-30 11:24:00,
2013-04-30 05:39:00,49.6,32.0,29.42,ENE,61,3.0,12.0,51,0.00,,,0.00,weatherlink.com 1.10,2013-04-30 11:39:00,
2013-04-30 05:54:00,45.6,33.0,29.43,NE,37,2.0,10.0,61,0.00,,,0.00,weatherlink.com 1.10,2013-04-30 11:54:00,
2013-04-30 06:09:00,44.6,33.0,29.46,NE,50,3.0,10.0,64,0.00,,,0.00,weatherlink.com 1.10,2013-04-30 12:09:00,
2013-04-30 06:24:00,43.8,33.0,29.46,NNW,346,2.0,6.0,66,0.00,,,0.00,weatherlink.com 1.10,2013-04-30 12:24:00,
2013-04-30 06:39:00,43.4,33.0,29.51,NE,55,0.0,5.0,68,0.00,,,0.00,weatherlink.com 1.10,2013-04-30 12:39:00,
2013-04-30 06:54:00,43.4,33.0,29.52,North,359,0.0,4.0,67,0.00,,,0.00,weatherlink.com 1.10,2013-04-30 12:54:00,
2013-04-30 07:09:00,43.5,33.0,29.54,NNW,328,0.0,3.0,67,0.00,,,0.00,weatherlink.com 1.10,2013-04-30 13:09:00,
2013-04-30 07:24:00,43.3,33.0,29.55,NNW,340,1.0,3.0,66,0.00,,,0.00,weatherlink.com 1.10,2013-04-30 13:24:00,
2013-04-30 07:39:00,43.6,32.0,29.55,East,94,0.0,2.0,65,0.00,,,0.00,weatherlink.com 1.10,2013-04-30 13:39:00,
2013-04-30 07:54:00,44.3,33.0,29.56,East,96,0.0,1.0,64,0.00,,,0.00,weatherlink.com 1.10,2013-04-30 13:54:00,
2013-04-30 08:09:00,45.7,33.0,29.55,South,170,0.0,2.0,61,0.00,,,0.00,weatherlink.com 1.10,2013-04-30 14:09:00,
2013-04-30 08:24:00,47.7,33.0,29.55,SSW,201,0.0,3.0,58,0.00,,,0.00,weatherlink.com 1.10,2013-04-30 14:24:00,
2013-04-30 08:39:00,49.2,33.0,29.54,ESE,103,1.0,3.0,55,0.00,,,0.00,weatherlink.com 1.10,2013-04-30 14:39:00,
2013-04-30 08:54:00,49.3,33.0,29.54,North,356,1.0,3.0,54,0.00,,,0.00,weatherlink.com 1.10,2013-04-30 14:54:00,
2013-04-30 09:09:00,50.9,34.0,29.54,East,96,1.0,1.0,52,0.00,,,0.00,weatherlink.com 1.10,2013-04-30 15:09:00,
2013-04-30 09:24:00,51.3,34.0,29.53,SSE,163,0.0,4.0,51,0.00,,,0.00,weatherlink.com 1.10,2013-04-30 15:24:00,
2013-04-30 09:39:00,52.5,35.0,29.52,ENE,78,0.0,4.0,51,0.00,,,0.00,weatherlink.com 1.10,2013-04-30 15:39:00,
2013-04-30 09:54:00,53.7,35.0,29.53,SW,223,0.0,3.0,49,0.00,,,0.00,weatherlink.com 1.10,2013-04-30 15:54:00,
2013-04-30 10:09:00,51.8,34.0,29.53,North,350,2.0,3.0,52,0.00,,,0.00,weatherlink.com 1.10,2013-04-30 16:09:00,
2013-04-30 10:24:00,50.9,35.0,29.52,NE,37,0.0,4.0,54,0.00,,,0.00,weatherlink.com 1.10,2013-04-30 16:24:00,
2013-04-30 10:39:00,51.8,35.0,29.52,NE,43,1.0,3.0,54,0.00,,,0.00,weatherlink.com 1.10,2013-04-30 16:39:00,
2013-04-30 10:54:00,52.4,36.0,29.52,SE,124,3.0,4.0,53,0.00,,,0.00,weatherlink.com 1.10,2013-04-30 16:54:00,
2013-04-30 11:09:00,53.3,36.0,29.52,East,80,2.0,4.0,52,0.00,,,0.00,weatherlink.com 1.10,2013-04-30 17:09:00,
2013-04-30 11:24:00,53.7,36.0,29.52,NNW,342,3.0,6.0,51,0.00,,,0.00,weatherlink.com 1.10,2013-04-30 17:24:00,
2013-04-30 11:39:00,54.3,36.0,29.52,NNE,25,1.0,6.0,51,0.00,,,0.00,weatherlink.com 1.10,2013-04-30 17:39:00,
2013-04-30 11:54:00,55.2,37.0,29.52,North,356,2.0,4.0,50,0.00,,,0.00,weatherlink.com 1.10,2013-04-30 17:54:00,
2013-04-30 12:09:00,55.3,37.0,29.51,East,91,1.0,6.0,51,0.00,,,0.00,weatherlink.com 1.10,2013-04-30 18:09:00,
2013-04-30 12:24:00,56.2,37.0,29.52,NNW,339,3.0,5.0,49,0.00,,,0.00,weatherlink.com 1.10,2013-04-30 18:24:00,
2013-04-30 12:39:00,55.8,37.0,29.53,ENE,74,1.0,4.0,50,0.00,,,0.00,weatherlink.com 1.10,2013-04-30 18:39:00,
2013-04-30 12:54:00,55.8,37.0,29.51,North,1,5.0,5.0,50,0.00,,,0.00,weatherlink.com 1.10,2013-04-30 18:54:00,
2013-04-30 13:09:00,57.6,38.0,29.53,NE,36,3.0,6.0,48,0.00,,,0.00,weatherlink.com 1.10,2013-04-30 19:09:00,
2013-04-30 13:25:00,57.4,38.0,29.52,ENE,78,1.0,5.0,48,0.00,,,0.00,weatherlink.com 1.10,2013-04-30 19:25:00,
2013-04-30 13:40:00,57.8,39.0,29.51,NE,34,1.0,7.0,49,0.00,,,0.00,weatherlink.com 1.10,2013-04-30 19:40:00,
2013-04-30 13:55:00,58.1,38.0,29.50,North,356,6.0,9.0,47,0.00,,,0.00,weatherlink.com 1.10,2013-04-30 19:55:00,
2013-04-30 14:10:00,56.5,37.0,29.52,North,359,4.0,5.0,49,0.00,,,0.00,weatherlink.com 1.10,2013-04-30 20:10:00,
2013-04-30 14:25:00,56.3,37.0,29.51,North,356,2.0,8.0,49,0.00,,,0.00,weatherlink.com 1.10,2013-04-30 20:25:00,
2013-04-30 14:40:00,56.3,37.0,29.52,WNW,297,1.0,7.0,49,0.00,,,0.00,weatherlink.com 1.10,2013-04-30 20:40:00,
2013-04-30 14:55:00,56.5,37.0,29.54,North,9,1.0,6.0,48,0.00,,,0.00,weatherlink.com 1.10,2013-04-30 20:55:00,
2013-04-30 15:10:00,56.2,37.0,29.53,NE,51,2.0,9.0,49,0.00,,,0.00,weatherlink.com 1.10,2013-04-30 21:10:00,
2013-04-30 15:25:00,57.4,37.0,29.51,NE,45,8.0,8.0,46,0.00,,,0.00,weatherlink.com 1.10,2013-04-30 21:25:00,
2013-04-30 15:40:00,57.2,36.0,29.54,NW,319,5.0,8.0,46,0.00,,,0.00,weatherlink.com 1.10,2013-04-30 21:40:00,
2013-04-30 15:55:00,55.9,36.0,29.55,NNE,22,9.0,11.0,48,0.00,,,0.00,weatherlink.com 1.10,2013-04-30 21:55:00,
2013-04-30 16:10:00,54.8,36.0,29.55,NNE,17,8.0,11.0,49,0.00,,,0.00,weatherlink.com 1.10,2013-04-30 22:10:00,
2013-04-30 16:25:00,54.0,36.0,29.56,NE,55,1.0,8.0,50,0.00,,,0.00,weatherlink.com 1.10,2013-04-30 22:25:00,
2013-04-30 16:41:00,54.4,35.0,29.56,SSE,155,0.0,6.0,49,0.00,,,0.00,weatherlink.com 1.10,2013-04-30 22:41:00,
2013-04-30 16:55:00,53.8,35.0,29.56,NNE,12,2.0,7.0,50,0.00,,,0.00,weatherlink.com 1.10,2013-04-30 22:55:00,
2013-04-30 17:10:00,54.2,35.0,29.57,NE,53,1.0,6.0,49,0.00,,,0.00,weatherlink.com 1.10,2013-04-30 23:10:00,
2013-04-30 17:25:00,54.7,35.0,29.56,NNW,346,3.0,5.0,48,0.00,,,0.00,weatherlink.com 1.10,2013-04-30 23:25:00,
2013-04-30 17:40:00,54.3,36.0,29.57,WNW,299,1.0,5.0,50,0.00,,,0.00,weatherlink.com 1.10,2013-04-30 23:40:00,
2013-04-30 17:55:00,54.4,35.0,29.56,NNW,332,2.0,8.0,49,0.00,,,0.00,weatherlink.com 1.10,2013-04-30 23:55:00,
2013-04-30 18:10:00,54.5,35.0,29.57,NNE,31,1.0,2.0,48,0.00,,,0.00,weatherlink.com 1.10,2013-05-01 00:10:00,
2013-04-30 18:25:00,54.5,34.0,29.58,East,96,5.0,5.0,46,0.00,,,0.00,weatherlink.com 1.10,2013-05-01 00:25:00,
2013-04-30 18:40:00,54.3,34.0,29.59,East,84,0.0,3.0,46,0.00,,,0.00,weatherlink.com 1.10,2013-05-01 00:40:00,
2013-04-30 18:55:00,54.1,34.0,29.59,North,359,3.0,5.0,46,0.00,,,0.00,weatherlink.com 1.10,2013-05-01 00:55:00,
2013-04-30 19:10:00,53.7,34.0,29.61,NE,55,0.0,7.0,47,0.00,,,0.00,weatherlink.com 1.10,2013-05-01 01:10:00,
2013-04-30 19:25:00,52.6,35.0,29.61,NNW,348,2.0,7.0,51,0.00,,,0.00,weatherlink.com 1.10,2013-05-01 01:25:00,
2013-04-30 19:40:00,52.2,33.0,29.63,North,5,2.0,6.0,49,0.00,,,0.00,weatherlink.com 1.10,2013-05-01 01:40:00,
2013-04-30 19:55:00,51.8,34.0,29.65,NE,34,1.0,5.0,51,0.00,,,0.00,weatherlink.com 1.10,2013-05-01 01:55:00,
2013-04-30 20:10:00,51.7,34.0,29.65,NNE,13,1.0,6.0,51,0.00,,,0.00,weatherlink.com 1.10,2013-05-01 02:10:00,
2013-04-30 20:25:00,51.4,33.0,29.67,NNW,348,1.0,6.0,50,0.00,,,0.00,weatherlink.com 1.10,2013-05-01 02:25:00,
2013-04-30 20:40:00,51.4,33.0,29.69,East,82,1.0,5.0,50,0.00,,,0.00,weatherlink.com 1.10,2013-05-01 02:40:00,
2013-04-30 20:55:00,51.0,32.0,29.72,NNW,340,1.0,8.0,49,0.00,,,0.00,weatherlink.com 1.10,2013-05-01 02:55:00,
2013-04-30 21:10:00,50.8,32.0,29.73,NNE,12,9.0,9.0,49,0.00,,,0.00,weatherlink.com 1.10,2013-05-01 03:10:00,
2013-04-30 21:25:00,45.0,34.0,29.77,NNW,344,5.0,14.0,66,0.00,,,0.00,weatherlink.com 1.10,2013-05-01 03:25:00,
2013-04-30 21:40:00,41.8,34.0,29.78,NNW,333,2.0,12.0,75,0.00,,,0.00,weatherlink.com 1.10,2013-05-01 03:40:00,
2013-04-30 21:55:00,41.1,35.0,29.79,ENE,66,5.0,10.0,79,0.00,,,0.00,weatherlink.com 1.10,2013-05-01 03:55:00,
2013-04-30 22:10:00,40.7,35.0,29.81,ENE,65,2.0,11.0,81,0.00,,,0.00,weatherlink.com 1.10,2013-05-01 04:10:00,
2013-04-30 22:25:00,40.6,36.0,29.82,NNE,21,2.0,8.0,83,0.00,,,0.00,weatherlink.com 1.10,2013-05-01 04:25:00,
2013-04-30 22:41:00,39.8,35.0,29.83,ENE,77,2.0,10.0,84,0.00,,,0.00,weatherlink.com 1.10,2013-05-01 04:41:00,
2013-04-30 22:56:00,39.7,36.0,29.83,North,349,3.0,6.0,85,0.00,,,0.00,weatherlink.com 1.10,2013-05-01 04:56:00,
2013-04-30 23:11:00,39.9,36.0,29.84,WNW,294,1.0,5.0,84,0.00,,,0.00,weatherlink.com 1.10,2013-05-01 05:11:00,
2013-04-30 23:26:00,39.7,36.0,29.85,North,358,2.0,6.0,85,0.00,,,0.00,weatherlink.com 1.10,2013-05-01 05:26:00,
2013-04-30 23:41:00,39.7,36.0,29.86,NNW,340,2.0,4.0,85,0.00,,,0.00,weatherlink.com 1.10,2013-05-01 05:41:00,
2013-04-30 23:56:00,39.6,36.0,29.86,NE,45,0.0,5.0,87,0.00,,,0.00,weatherlink.com 1.10,2013-05-01 05:56:00,